El Campo, Texas
Current Conditions -  °F | °C
As of 4:55 AM on Wednesday 22 Oct 2014 (Local Time) from KARM Reporting Station
Clear Clear  
Wind Chill: 59°   Ceiling: Unl
Heat Index: 59°   Visibility: 10mi
Dew Point: 56°   Wind: 5mph
Humidity: 90%   Direction: 30°NNE
Pressure: 30.02"   Gusts: NA
Location:  29.22°N, 96.29°W
Report Text: KARM 220955Z AUTO 03004KT 10SM CLR 15/14 A3002 RMK AO2 T01510135
Loading
Personal Weather Stations






























Interactive Weather Map
Tropical Storm Tracking
New forecast layout! Learn more

10-Day Weather Forecast

Advertisements
Track Severe Weather on mobile